Time;durP1;ratioP1;P1;durP2;ratioP2;P2;SDS_P1;SDS_P2;PMS_P1;PMS_P2;Temp;Humidity;BMP_temperature;BMP_pressure;BME280_temperature;BME280_humidity;BME280_pressure;Samples;Min_cycle;Max_cycle;Signal;HPM_P1;HPM_P2
2022/09/08 00:00:38;;;;;;;10.30;2.28;;;;;;;15.74;45.05;100815.72;10291915;28;20408;-68
2022/09/08 00:06:03;;;;;;;10.25;2.75;;;;;;;15.82;47.14;100806.72;10290495;28;20491;-68
2022/09/08 00:11:06;;;;;;;14.93;2.95;;;;;;;15.50;47.44;100788.25;10291514;28;20105;-68
2022/09/08 00:16:09;;;;;;;20.63;3.07;;;;;;;15.46;46.18;100794.16;10297585;28;20049;-68
2022/09/08 00:21:10;;;;;;;11.85;3.05;;;;;;;15.48;46.21;100811.69;10299132;28;20077;-68
2022/09/08 00:26:11;;;;;;;13.32;4.65;;;;;;;15.42;46.99;100812.44;10297933;28;20070;-68
2022/09/08 00:31:11;;;;;;;11.10;3.33;;;;;;;14.92;47.89;100741.84;10298391;28;20047;-68
2022/09/08 00:36:15;;;;;;;11.15;3.00;;;;;;;15.32;48.81;100821.81;10298204;28;20054;-68
2022/09/08 00:41:15;;;;;;;8.40;2.53;;;;;;;15.20;48.26;100806.22;10297978;28;20137;-69
2022/09/08 00:46:24;;;;;;;14.82;2.38;;;;;;;15.32;49.75;100805.75;10297693;28;20153;-68
2022/09/08 00:51:26;;;;;;;35.17;3.90;;;;;;;15.40;49.25;100814.47;10297581;28;20526;-68
2022/09/08 00:56:29;;;;;;;11.80;2.22;;;;;;;14.92;48.76;100749.88;10297274;28;20509;-68
2022/09/08 01:01:34;;;;;;;9.93;2.35;;;;;;;15.29;50.32;100812.31;10297317;28;20053;-68
2022/09/08 01:17:32;;;;;;;6.75;2.20;;;;;;;15.22;47.82;100817.56;10296391;28;20057;-68
2022/09/08 01:22:51;;;;;;;5.22;1.90;;;;;;;14.30;47.33;100662.88;10295502;28;20046;-68
2022/09/08 01:28:17;;;;;;;4.20;1.95;;;;;;;14.70;47.37;100732.09;10296864;28;20043;-68
2022/09/08 01:33:19;;;;;;;8.27;2.30;;;;;;;15.14;47.64;100814.19;10296627;28;20062;-68
2022/09/08 01:38:20;;;;;;;8.45;1.80;;;;;;;15.15;48.27;100813.16;10295761;28;20426;-68
2022/09/08 01:43:20;;;;;;;8.52;1.85;;;;;;;15.11;48.17;100815.38;10295712;28;20130;-69
2022/09/08 01:48:22;;;;;;;23.20;2.38;;;;;;;15.08;48.21;100818.44;10296626;28;20499;-70
2022/09/08 01:53:22;;;;;;;83.97;5.97;;;;;;;15.08;47.78;100802.38;10295939;28;20074;-69
2022/09/08 01:58:24;;;;;;;15.48;2.00;;;;;;;14.99;47.63;100811.50;10295135;28;20697;-69
2022/09/08 02:03:25;;;;;;;16.92;2.15;;;;;;;14.90;48.07;100812.59;10295122;28;20047;-70
2022/09/08 02:08:26;;;;;;;13.75;2.47;;;;;;;14.33;48.21;100728.50;10296442;28;20506;-68
2022/09/08 02:13:29;;;;;;;114.65;7.93;;;;;;;14.53;48.90;100788.44;10295250;28;20050;-69
2022/09/08 02:18:31;;;;;;;171.65;10.60;;;;;;;14.56;49.60;100830.84;10294831;28;20049;-69
2022/09/08 02:23:33;;;;;;;88.38;6.82;;;;;;;14.48;50.19;100846.09;10295194;28;20050;-70
2022/09/08 02:28:34;;;;;;;100.43;8.30;;;;;;;13.56;50.88;100713.47;10294808;28;20089;-72
2022/09/08 02:33:35;;;;;;;30.65;2.95;;;;;;;14.25;51.54;100830.09;10294305;28;20082;-69
2022/09/08 02:38:36;;;;;;;16.67;2.10;;;;;;;13.99;50.57;100809.94;10291843;28;20070;-68
2022/09/08 02:43:37;;;;;;;45.80;4.88;;;;;;;13.97;51.53;100819.97;10294115;28;20039;-69
2022/09/08 02:48:38;;;;;;;132.07;8.27;;;;;;;13.61;52.32;100774.31;10293148;28;20057;-70
2022/09/08 02:53:41;;;;;;;80.00;6.47;;;;;;;13.85;53.06;100837.41;10292734;28;20565;-70
2022/09/08 02:58:42;;;;;;;163.05;9.15;;;;;;;13.60;53.16;100802.84;10293263;28;20503;-68
2022/09/08 03:03:43;;;;;;;29.65;8.80;;;;;;;13.84;53.36;100841.09;10293014;28;20066;-69
2022/09/08 03:08:46;;;;;;;31.15;7.85;;;;;;;13.54;53.59;100792.88;10292910;28;20043;-70
2022/09/08 03:13:46;;;;;;;53.97;6.05;;;;;;;13.91;53.59;100858.09;10293138;28;20041;-69
2022/09/08 03:18:48;;;;;;;49.10;4.53;;;;;;;13.98;54.04;100845.69;10292568;28;20491;-69
2022/09/08 03:23:48;;;;;;;31.35;4.22;;;;;;;14.13;54.00;100851.91;10291689;28;20101;-71
2022/09/08 03:28:49;;;;;;;22.45;3.35;;;;;;;14.14;54.08;100839.38;10292446;28;20069;-69
2022/09/08 03:33:50;;;;;;;29.52;2.97;;;;;;;13.81;54.65;100715.94;10291550;28;20047;-73
2022/09/08 03:38:51;;;;;;;14.10;2.28;;;;;;;15.12;53.45;100838.44;10292576;28;20082;-69
2022/09/08 03:43:52;;;;;;;9.98;2.10;;;;;;;15.86;51.98;100851.72;10291256;28;20047;-69
2022/09/08 03:48:52;;;;;;;15.00;2.30;;;;;;;16.65;50.70;100850.75;10291953;28;20043;-68
2022/09/08 03:54:46;;;;;;;11.63;1.70;;;;;;;16.95;49.06;100786.16;10291907;28;20046;-68
2022/09/08 03:59:16;;;;;;;9.27;2.10;;;;;;;17.78;47.46;100782.31;10290825;28;20049;-68
2022/09/08 04:04:17;;;;;;;10.32;2.15;;;;;;;18.56;46.29;100822.03;10293005;28;20396;-67
2022/09/08 04:09:18;;;;;;;8.23;1.90;;;;;;;19.23;44.74;100828.09;10289519;28;20042;-68
2022/09/08 04:14:19;;;;;;;21.90;2.58;;;;;;;19.79;44.32;100807.75;10288826;28;20093;-69
2022/09/08 04:19:19;;;;;;;26.35;4.68;;;;;;;20.35;43.96;100846.56;10242985;28;20567;-72
2022/09/08 04:24:20;;;;;;;11.15;2.95;;;;;;;20.77;42.80;100842.25;10252160;28;20039;-71
2022/09/08 04:29:22;;;;;;;28.55;4.18;;;;;;;20.85;44.16;100770.91;10250465;28;20047;-67
2022/09/08 04:34:22;;;;;;;13.20;3.20;;;;;;;21.38;44.76;100786.50;10250472;28;20133;-67
2022/09/08 04:39:23;;;;;;;11.38;3.33;;;;;;;21.61;45.49;100834.44;10250343;28;20098;-67
2022/09/08 04:44:24;;;;;;;30.33;4.75;;;;;;;21.50;46.44;100841.44;10274499;28;20070;-68
2022/09/08 04:49:25;;;;;;;8.10;3.20;;;;;;;21.48;46.70;100835.44;10290510;28;20418;-68
2022/09/08 04:54:26;;;;;;;19.25;3.08;;;;;;;20.66;48.15;100749.31;10289975;28;20043;-68
2022/09/08 04:59:28;;;;;;;26.35;4.10;;;;;;;20.22;49.18;100753.06;10292252;28;20054;-68
2022/09/08 05:04:29;;;;;;;6.78;2.42;;;;;;;20.20;50.26;100838.78;10297225;28;20043;-68
2022/09/08 05:09:29;;;;;;;11.60;2.45;;;;;;;19.93;51.13;100833.59;10297646;28;20495;-69
2022/09/08 05:14:30;;;;;;;12.23;2.60;;;;;;;19.46;51.31;100768.31;10296706;28;20070;-67
2022/09/08 05:19:31;;;;;;;122.07;8.02;;;;;;;20.02;51.50;100829.56;10296407;28;20102;-68
2022/09/08 05:24:32;;;;;;;11.70;2.83;;;;;;;19.92;50.62;100772.59;10297418;28;20047;-66
2022/09/08 05:29:33;;;;;;;18.42;2.92;;;;;;;20.27;50.42;100755.91;10296542;28;20503;-69
2022/09/08 05:34:34;;;;;;;6.82;2.10;;;;;;;21.09;49.37;100826.75;10296658;28;20078;-67
2022/09/08 05:39:34;;;;;;;6.95;2.10;;;;;;;21.39;49.14;100815.19;10296404;28;20385;-68
2022/09/08 05:44:35;;;;;;;8.50;1.90;;;;;;;21.58;48.47;100830.31;10296222;28;20133;-69
2022/09/08 05:49:36;;;;;;;6.25;2.03;;;;;;;21.77;47.70;100820.25;10296379;28;20566;-69
2022/09/08 05:54:37;;;;;;;11.88;1.90;;;;;;;21.69;47.01;100755.72;10295363;28;20129;-68
2022/09/08 05:59:38;;;;;;;3.88;1.85;;;;;;;22.36;46.01;100823.13;10295775;28;20046;-68
2022/09/08 06:04:39;;;;;;;13.43;2.97;;;;;;;22.47;45.78;100813.38;10293610;28;20051;-68
2022/09/08 06:09:40;;;;;;;14.07;3.13;;;;;;;22.20;46.40;100804.88;10294531;28;20084;-69
2022/09/08 06:14:40;;;;;;;8.35;2.17;;;;;;;22.68;45.71;100834.44;10295302;28;20451;-68
2022/09/08 06:19:41;;;;;;;21.70;2.35;;;;;;;23.01;45.16;100823.00;10295417;28;20389;-69
2022/09/08 06:24:42;;;;;;;6.13;3.05;;;;;;;22.98;44.71;100815.34;10294612;28;20507;-69
2022/09/08 06:30:03;;;;;;;7.32;2.40;;;;;;;23.30;45.18;100835.75;10295032;28;20050;-69
2022/09/08 06:35:15;;;;;;;16.40;2.53;;;;;;;23.26;44.54;100830.00;10286469;28;20063;-68
2022/09/08 06:40:39;;;;;;;19.13;3.25;;;;;;;23.69;44.17;100832.25;10294181;28;20096;-68
2022/09/08 06:45:44;;;;;;;9.40;2.30;;;;;;;23.77;42.68;100819.34;10294030;28;20046;-69
2022/09/08 06:51:17;;;;;;;4.97;1.70;;;;;;;24.29;40.77;100810.97;10293712;28;20070;-70
2022/09/08 06:56:47;;;;;;;7.05;2.00;;;;;;;24.27;41.96;100813.13;10288969;28;20050;-68
2022/09/08 07:02:04;;;;;;;6.47;1.92;;;;;;;24.27;40.79;100807.69;10292759;28;20126;-69
2022/09/08 07:07:48;;;;;;;3.83;1.60;;;;;;;24.71;39.14;100807.81;10293112;28;20042;-71
2022/09/08 07:13:26;;;;;;;4.40;2.10;;;;;;;24.76;39.05;100803.28;10245319;28;20093;-72
2022/09/08 07:18:54;;;;;;;6.93;1.60;;;;;;;25.18;38.40;100799.22;10292075;28;20053;-69
2022/09/08 07:23:58;;;;;;;19.17;2.33;;;;;;;25.13;38.67;100789.13;10291676;28;20097;-69
2022/09/08 07:29:06;;;;;;;10.30;2.17;;;;;;;25.17;38.44;100789.44;10291808;28;20109;-69
2022/09/08 07:34:15;;;;;;;9.30;2.40;;;;;;;25.16;37.79;100777.72;10292333;28;20062;-70
2022/09/08 07:39:22;;;;;;;10.52;2.42;;;;;;;25.17;37.34;100776.66;10291512;28;20050;-71
2022/09/08 07:44:24;;;;;;;5.28;2.33;;;;;;;24.86;37.87;100688.47;10291395;28;20049;-70
2022/09/08 07:49:44;;;;;;;4.40;2.25;;;;;;;25.63;34.94;100765.41;10292177;28;20049;-66
2022/09/08 07:54:48;;;;;;;8.63;2.47;;;;;;;25.11;35.89;100690.66;10291661;28;20039;-70
2022/09/08 08:00:05;;;;;;;12.82;2.75;;;;;;;25.37;36.65;100732.56;10291440;28;20057;-70
2022/09/08 08:05:25;;;;;;;4.47;2.17;;;;;;;25.22;35.99;100754.97;10292174;28;20053;-68
2022/09/08 08:10:34;;;;;;;6.10;2.45;;;;;;;24.71;37.42;100724.44;10291070;28;20058;-68
2022/09/08 08:15:45;;;;;;;6.82;2.20;;;;;;;25.38;36.41;100726.03;10290639;28;20039;-71
2022/09/08 08:20:50;;;;;;;6.40;2.45;;;;;;;25.57;35.52;100731.91;10291283;28;20046;-68
2022/09/08 08:26:05;;;;;;;5.22;2.45;;;;;;;24.90;35.68;100718.69;10291122;28;20043;-69
2022/09/08 08:31:24;;;;;;;13.10;2.65;;;;;;;24.37;36.48;100643.03;10291116;28;20491;-69
2022/09/08 08:36:27;;;;;;;5.03;2.35;;;;;;;25.15;36.49;100697.22;10296704;28;20069;-69
2022/09/08 08:41:40;;;;;;;7.27;2.40;;;;;;;25.43;35.80;100592.00;10298824;28;20038;-68
2022/09/08 08:46:59;;;;;;;;;;;;;;;26.90;32.61;100694.66;10298371;28;20546;-68
2022/09/08 08:52:21;;;;;;;22.80;2.90;;;;;;;26.44;33.81;100656.28;10298344;28;20355;-68
2022/09/08 08:58:17;;;;;;;7.27;2.63;;;;;;;26.30;34.59;100696.00;10298116;28;20070;-69
2022/09/08 09:03:45;;;;;;;11.27;3.03;;;;;;;26.36;35.52;100693.03;10292688;28;20465;-69
2022/09/08 09:09:24;;;;;;;8.68;2.50;;;;;;;27.13;32.93;100673.44;10297784;28;20042;-68
2022/09/08 09:14:49;;;;;;;17.63;2.38;;;;;;;27.50;33.78;100676.78;10297898;28;20039;-66
2022/09/08 09:20:16;;;;;;;5.32;2.20;;;;;;;26.98;33.41;100608.78;10297136;28;20074;-69
2022/09/08 09:25:35;;;;;;;17.25;2.47;;;;;;;27.25;33.03;100665.84;10297271;28;20043;-68
2022/09/08 09:30:44;;;;;;;10.40;2.50;;;;;;;27.13;32.92;100663.31;10296730;28;20121;-68
2022/09/08 09:36:22;;;;;;;6.80;2.25;;;;;;;27.10;33.09;100666.59;10297594;28;20058;-69
2022/09/08 09:41:22;;;;;;;7.90;2.58;;;;;;;26.53;33.98;100667.53;10296014;28;20570;-68
2022/09/08 09:47:07;;;;;;;4.82;2.10;;;;;;;26.33;33.58;100674.50;10294805;28;20130;-71
2022/09/08 09:52:21;;;;;;;7.75;2.90;;;;;;;25.93;34.16;100662.28;10295473;28;20051;-68
2022/09/08 09:57:49;;;;;;;15.10;2.75;;;;;;;26.49;32.92;100656.34;10295808;28;20042;-67
2022/09/08 10:03:11;;;;;;;5.95;2.33;;;;;;;26.28;33.21;100641.78;10295025;28;20523;-69
2022/09/08 10:08:48;;;;;;;10.02;2.35;;;;;;;26.87;32.51;100643.41;10294833;28;20459;-69
2022/09/08 10:14:11;;;;;;;7.97;2.35;;;;;;;26.87;31.90;100632.50;10295353;28;20046;-69
2022/09/08 10:19:17;;;;;;;5.53;2.40;;;;;;;26.89;31.60;100626.75;10295090;28;20085;-69
2022/09/08 10:25:05;;;;;;;10.90;2.60;;;;;;;26.53;32.70;100637.56;10294206;28;20537;-72
2022/09/08 10:30:29;;;;;;;12.98;2.70;;;;;;;26.61;33.29;100623.44;10294058;28;20492;-69
2022/09/08 10:35:37;;;;;;;11.35;2.83;;;;;;;26.58;32.23;100545.75;10294391;28;20062;-70
2022/09/08 10:40:56;;;;;;;11.07;2.35;;;;;;;27.39;31.27;100606.09;10293637;28;20112;-69
2022/09/08 10:46:15;;;;;;;4.75;2.35;;;;;;;26.86;30.93;100491.81;10293909;28;20514;-69
2022/09/08 10:51:38;;;;;;;6.13;2.10;;;;;;;27.66;30.43;100609.34;10293772;28;20035;-70
2022/09/08 10:56:40;;;;;;;5.43;1.98;;;;;;;27.70;30.75;100596.81;10293205;28;20077;-69
2022/09/08 11:02:07;;;;;;;5.50;2.20;;;;;;;27.95;29.74;100600.59;10293435;28;20047;-69
2022/09/08 11:07:30;;;;;;;15.95;3.53;;;;;;;28.17;29.82;100595.59;10293185;28;20046;-69
2022/09/08 11:12:58;;;;;;;12.18;3.63;;;;;;;27.67;31.11;100596.50;10293388;28;20053;-67
2022/09/08 11:18:41;;;;;;;8.65;4.00;;;;;;;27.08;31.40;100527.81;10292382;28;20125;-72
2022/09/08 11:24:04;;;;;;;13.70;4.90;;;;;;;27.39;32.31;100584.28;10292030;28;20046;-69
2022/09/08 11:29:09;;;;;;;27.63;7.80;;;;;;;26.90;31.73;100585.63;10292414;28;20098;-68
2022/09/08 11:34:31;;;;;;;41.72;8.32;;;;;;;26.28;33.54;100591.97;10292427;28;20054;-69
2022/09/08 11:39:37;;;;;;;7.97;3.97;;;;;;;25.92;33.33;100584.44;10291598;28;20078;-66
2022/09/08 11:44:46;;;;;;;15.43;6.00;;;;;;;26.28;32.87;100581.88;10291569;28;20085;-69
2022/09/08 11:50:05;;;;;;;8.90;4.60;;;;;;;26.59;32.77;100573.81;10291919;28;20039;-69
2022/09/08 11:55:31;;;;;;;11.85;5.32;;;;;;;26.67;32.76;100577.94;10291850;28;20555;-69
2022/09/08 12:01:09;;;;;;;20.23;5.93;;;;;;;26.13;33.44;100573.66;10290970;28;20046;-69
2022/09/08 12:06:28;;;;;;;11.27;4.88;;;;;;;25.98;33.32;100551.81;10291831;28;20078;-69
2022/09/08 12:11:40;;;;;;;43.03;7.70;;;;;;;26.44;33.25;100550.06;10298164;28;20053;-69
2022/09/08 12:17:10;;;;;;;11.30;5.35;;;;;;;26.68;32.24;100536.78;10278878;28;20061;-73
2022/09/08 12:22:45;;;;;;;12.35;7.25;;;;;;;26.61;32.50;100496.19;10278721;28;20407;-74
2022/09/08 12:27:55;;;;;;;12.82;6.53;;;;;;;26.44;32.67;100484.69;10276367;28;20055;-74
2022/09/08 12:33:07;;;;;;;9.00;5.57;;;;;;;26.71;31.68;100546.31;10275209;28;20054;-73
2022/09/08 12:38:32;;;;;;;16.10;5.80;;;;;;;26.06;33.11;100546.69;10275634;28;20043;-73
2022/09/08 12:43:43;;;;;;;83.18;8.55;;;;;;;25.20;34.17;100481.69;10269015;28;20602;-72
2022/09/08 12:49:10;;;;;;;38.65;5.00;;;;;;;25.43;34.62;100549.31;10296717;28;20043;-72
2022/09/08 12:54:18;;;;;;;18.15;4.75;;;;;;;25.19;34.20;100539.88;10257783;28;20049;-72
2022/09/08 12:59:37;;;;;;;29.52;5.65;;;;;;;25.01;35.00;100547.31;10281758;28;20042;-72
2022/09/08 13:05:14;;;;;;;9.57;4.07;;;;;;;25.26;34.84;100545.91;10297370;28;20121;-72
2022/09/08 13:10:44;;;;;;;9.90;2.88;;;;;;;25.59;34.22;100536.59;10294669;28;20109;-74
2022/09/08 13:15:51;;;;;;;8.57;2.58;;;;;;;25.60;33.98;100527.34;10287572;28;20077;-75
2022/09/08 13:21:09;;;;;;;8.65;2.80;;;;;;;25.57;34.95;100548.81;10276729;28;20070;-73
2022/09/08 13:26:36;;;;;;;7.78;2.55;;;;;;;25.27;34.91;100493.16;10271874;28;20035;-74
2022/09/08 13:31:47;;;;;;;16.50;3.22;;;;;;;25.25;35.43;100549.72;10276205;28;20047;-75
2022/09/08 13:36:54;;;;;;;65.22;7.07;;;;;;;24.88;36.11;100547.72;10288191;28;20054;-73
2022/09/08 13:42:21;;;;;;;12.10;2.67;;;;;;;24.58;37.02;100554.50;10295555;28;20054;-75
2022/09/08 13:47:53;;;;;;;49.10;5.65;;;;;;;24.43;37.68;100550.81;10295653;28;20101;-74
2022/09/08 13:53:09;;;;;;;19.73;4.22;;;;;;;24.23;36.70;100549.50;10296110;28;20047;-76
2022/09/08 13:58:29;;;;;;;14.60;2.72;;;;;;;24.16;36.67;100540.69;10291962;28;20043;-75
2022/09/08 14:03:34;;;;;;;15.25;2.67;;;;;;;24.04;36.88;100532.69;10286059;28;20042;-77
2022/09/08 14:08:45;;;;;;;7.57;1.92;;;;;;;24.25;36.57;100527.50;10295306;28;20078;-72
2022/09/08 14:13:46;;;;;;;14.02;3.13;;;;;;;24.32;36.37;100534.41;10294899;28;20414;-74
2022/09/08 14:19:08;;;;;;;23.70;3.70;;;;;;;24.32;36.84;100550.69;10293778;28;20055;-74
2022/09/08 14:24:36;;;;;;;15.90;3.33;;;;;;;24.33;37.68;100554.22;10294830;28;20125;-73
2022/09/08 14:30:02;;;;;;;15.30;3.53;;;;;;;24.31;37.57;100551.75;10293839;28;20093;-73
2022/09/08 14:35:40;;;;;;;19.20;3.90;;;;;;;24.33;36.92;100556.94;10294142;28;20150;-73
2022/09/08 14:40:59;;;;;;;34.45;4.97;;;;;;;24.23;37.78;100567.66;10293831;28;20046;-73
2022/09/08 14:46:02;;;;;;;16.80;3.50;;;;;;;24.06;37.25;100563.13;10293918;28;20178;-73
2022/09/08 14:51:09;;;;;;;14.73;3.05;;;;;;;24.00;36.58;100574.16;10294077;28;20078;-73
2022/09/08 14:56:17;;;;;;;16.30;2.70;;;;;;;23.84;36.79;100560.41;10293262;28;20105;-73
2022/09/08 15:01:31;;;;;;;21.55;3.38;;;;;;;23.62;37.92;100563.03;10292687;28;20035;-73
2022/09/08 15:07:00;;;;;;;30.60;4.43;;;;;;;23.26;38.74;100544.59;10293415;28;20073;-73
2022/09/08 15:12:13;;;;;;;43.25;5.05;;;;;;;22.87;39.44;100522.78;10293649;28;20121;-73
2022/09/08 15:17:28;;;;;;;66.18;6.25;;;;;;;22.18;39.16;100439.00;10293003;28;20050;-77
2022/09/08 15:22:50;;;;;;;18.00;3.58;;;;;;;22.84;39.22;100572.03;10290317;28;20648;-74
2022/09/08 15:27:54;;;;;;;16.48;2.97;;;;;;;22.60;38.90;100560.47;10291875;28;20043;-75
2022/09/08 15:32:59;;;;;;;57.42;5.65;;;;;;;22.36;40.59;100565.16;10291423;28;20154;-74
2022/09/08 15:38:27;;;;;;;54.55;5.10;;;;;;;22.11;42.06;100574.38;10291454;28;20051;-75
2022/09/08 15:43:42;;;;;;;62.00;6.10;;;;;;;21.16;42.87;100487.09;10290858;28;20035;-76
2022/09/08 15:49:04;;;;;;;91.43;6.53;;;;;;;20.90;44.63;100499.16;10283592;28;20574;-77
2022/09/08 15:54:42;;;;;;;35.83;3.40;;;;;;;21.11;45.10;100586.09;10290959;28;20393;-75
2022/09/08 16:00:11;;;;;;;85.45;7.45;;;;;;;21.05;45.32;100595.94;10288434;28;20058;-73
2022/09/08 16:05:32;;;;;;;23.17;5.30;;;;;;;20.57;45.21;100529.34;10251902;28;20130;-74
2022/09/08 16:10:33;;;;;;;38.22;3.83;;;;;;;20.96;43.94;100606.25;10258556;28;20043;-79
2022/09/08 16:15:46;;;;;;;15.05;2.72;;;;;;;20.87;44.69;100617.59;10291712;28;20053;-77
2022/09/08 16:20:53;;;;;;;77.78;4.88;;;;;;;20.59;45.97;100618.19;10291813;28;20054;-77
2022/09/08 16:26:08;;;;;;;43.95;3.28;;;;;;;20.01;45.93;100570.91;10290633;28;20447;-75
2022/09/08 16:31:25;;;;;;;20.23;2.40;;;;;;;19.91;47.09;100581.41;10290451;28;20054;-77
2022/09/08 16:36:30;;;;;;;27.50;3.28;;;;;;;19.51;46.42;100538.66;10290135;28;20055;-77
2022/09/08 16:41:46;;;;;;;26.95;3.00;;;;;;;20.01;47.17;100641.88;10291587;28;20039;-74
2022/09/08 16:46:47;;;;;;;14.68;2.17;;;;;;;19.39;46.97;100568.19;10289040;28;20511;-74
2022/09/08 16:52:23;;;;;;;18.92;3.05;;;;;;;19.75;47.71;100652.91;10290121;28;20050;-74
2022/09/08 16:57:50;;;;;;;14.57;3.58;;;;;;;19.61;47.63;100652.97;10287834;28;20050;-71
2022/09/08 17:02:56;;;;;;;14.05;4.93;;;;;;;19.50;48.27;100650.97;10297922;28;20049;-77
2022/09/08 17:08:17;;;;;;;21.75;7.88;;;;;;;19.12;48.37;100587.25;10296690;28;20051;-72
2022/09/08 17:13:25;;;;;;;15.63;7.90;;;;;;;19.46;48.89;100657.03;10290278;28;20483;-73
2022/09/08 17:18:43;;;;;;;17.77;9.93;;;;;;;19.14;49.91;100609.41;10293009;28;20525;-69
2022/09/08 17:24:16;;;;;;;21.55;10.02;;;;;;;19.54;50.34;100673.75;10295953;28;20046;-70
2022/09/08 17:29:35;;;;;;;22.97;10.20;;;;;;;19.49;49.46;100675.44;10282692;28;20043;-69
2022/09/08 17:34:42;;;;;;;24.25;11.13;;;;;;;19.42;50.62;100678.19;10284091;28;20306;-69
2022/09/08 17:40:04;;;;;;;21.58;10.85;;;;;;;18.57;52.10;100551.13;10288043;28;20141;-69
2022/09/08 17:45:14;;;;;;;28.65;12.02;;;;;;;19.21;51.92;100667.78;10280724;28;20043;-69
2022/09/08 17:50:31;;;;;;;20.95;11.05;;;;;;;19.06;52.52;100654.63;10254424;29;20043;-68
2022/09/08 17:56:12;;;;;;;19.00;11.32;;;;;;;18.82;53.20;100605.06;10271923;28;20039;-71
2022/09/08 18:01:22;;;;;;;19.52;10.85;;;;;;;18.79;53.04;100595.53;10272505;28;20559;-68
2022/09/08 18:06:36;;;;;;;17.63;9.52;;;;;;;18.86;53.67;100608.94;10276780;28;20590;-70
2022/09/08 18:11:49;;;;;;;17.33;7.75;;;;;;;18.83;54.23;100590.53;10277542;28;20089;-73
2022/09/08 18:17:01;;;;;;;21.83;5.68;;;;;;;19.31;54.77;100654.66;10275882;28;20121;-68
2022/09/08 18:22:24;;;;;;;17.35;4.82;;;;;;;18.96;54.80;100601.22;10278866;28;20043;-70
2022/09/08 18:27:46;;;;;;;7.35;3.60;;;;;;;19.30;55.25;100655.69;10271573;28;20066;-72
2022/09/08 18:33:11;;;;;;;9.20;2.65;;;;;;;19.19;55.99;100651.81;10278496;28;20137;-71
2022/09/08 18:38:22;;;;;;;7.53;2.42;;;;;;;18.68;56.33;100586.25;10291844;28;20137;-72
2022/09/08 18:43:35;;;;;;;8.95;2.22;;;;;;;18.97;56.77;100651.34;10294039;28;20125;-71
2022/09/08 18:48:50;;;;;;;7.50;2.17;;;;;;;18.93;57.59;100642.88;10293646;28;20046;-70
2022/09/08 18:54:09;;;;;;;10.02;2.28;;;;;;;18.80;56.67;100642.13;10290638;28;20042;-70
2022/09/08 18:59:48;;;;;;;4.93;2.20;;;;;;;18.78;59.47;100645.00;10276768;28;20384;-70
2022/09/08 19:05:16;;;;;;;10.23;2.45;;;;;;;18.59;59.80;100627.88;10276154;28;20046;-71
2022/09/08 19:10:37;;;;;;;6.00;2.75;;;;;;;18.70;59.74;100654.13;10271615;28;20055;-71
2022/09/08 19:15:59;;;;;;;8.15;2.45;;;;;;;18.63;59.87;100657.88;10294634;28;20138;-70
2022/09/08 19:21:04;;;;;;;14.20;2.67;;;;;;;18.43;59.75;100652.59;10269593;28;20483;-69
2022/09/08 19:26:04;;;;;;;12.82;3.80;;;;;;;18.49;60.13;100662.50;10259730;28;20066;-70
2022/09/08 19:31:13;;;;;;;11.60;5.63;;;;;;;18.47;62.42;100659.19;10270142;28;20039;-70
2022/09/08 19:36:23;;;;;;;10.40;6.38;;;;;;;18.43;63.24;100628.38;10269152;28;20392;-70
2022/09/08 19:41:50;;;;;;;11.40;5.90;;;;;;;18.70;61.93;100656.81;10259573;28;20448;-70
2022/09/08 19:47:15;;;;;;;9.00;4.97;;;;;;;18.81;64.16;100654.53;10288682;28;20049;-70
2022/09/08 19:52:40;;;;;;;11.80;4.85;;;;;;;18.81;64.55;100657.22;10291144;28;20043;-69
2022/09/08 19:57:58;;;;;;;7.30;3.90;;;;;;;18.76;64.44;100665.94;10291237;28;20050;-70
2022/09/08 20:03:18;;;;;;;9.00;4.95;;;;;;;18.64;63.14;100663.06;10289690;28;20506;-71
2022/09/08 20:08:36;;;;;;;9.95;5.00;;;;;;;18.55;65.04;100668.91;10273373;28;20043;-70
2022/09/08 20:13:51;;;;;;;12.95;5.40;;;;;;;17.88;65.94;100569.59;10265332;28;20047;-70
2022/09/08 20:19:21;;;;;;;11.43;5.90;;;;;;;18.39;65.85;100660.25;10261647;28;20062;-70
2022/09/08 20:24:25;;;;;;;8.88;5.43;;;;;;;18.22;64.65;100648.31;10263236;28;20405;-71
2022/09/08 20:29:57;;;;;;;15.98;6.63;;;;;;;17.92;67.28;100611.16;10292879;28;20041;-71
2022/09/08 20:35:16;;;;;;;14.15;6.00;;;;;;;18.07;65.75;100650.38;10299230;28;20059;-70
2022/09/08 20:40:42;;;;;;;11.70;6.72;;;;;;;17.62;68.24;100594.63;10298323;28;20058;-70
2022/09/08 20:45:52;;;;;;;10.23;6.43;;;;;;;17.89;69.22;100635.75;10298170;28;20122;-70
2022/09/08 20:51:18;;;;;;;12.52;6.50;;;;;;;17.97;69.34;100645.44;10299026;28;20042;-71
2022/09/08 20:56:29;;;;;;;12.98;6.45;;;;;;;17.85;69.55;100639.06;10297714;28;20038;-71
2022/09/08 21:01:37;;;;;;;15.32;6.30;;;;;;;17.49;69.83;100587.38;10298004;28;20132;-71
2022/09/08 21:06:39;;;;;;;13.95;6.25;;;;;;;17.90;68.75;100664.28;10297969;28;20066;-71
2022/09/08 21:11:48;;;;;;;18.77;6.50;;;;;;;17.71;69.56;100652.47;10297770;28;20070;-71
2022/09/08 21:17:13;;;;;;;15.82;6.88;;;;;;;17.70;69.92;100661.56;10297685;28;20043;-71
2022/09/08 21:22:34;;;;;;;12.68;5.95;;;;;;;17.19;71.20;100570.84;10296693;28;20054;-70
2022/09/08 21:27:43;;;;;;;15.30;6.68;;;;;;;17.02;71.03;100578.50;10295820;28;20550;-70
2022/09/08 21:33:01;;;;;;;10.00;5.68;;;;;;;17.41;72.55;100652.06;10297141;28;20491;-70
2022/09/08 21:38:23;;;;;;;13.57;5.50;;;;;;;17.34;73.33;100646.66;10296726;28;20407;-70
2022/09/08 21:43:45;;;;;;;13.70;5.18;;;;;;;16.71;72.92;100554.88;10295975;28;20038;-70
2022/09/08 21:48:47;;;;;;;8.15;5.07;;;;;;;17.05;72.71;100638.97;10296542;28;20038;-70
2022/09/08 21:53:51;;;;;;;13.70;4.68;;;;;;;16.87;73.64;100624.31;10295725;28;20045;-70
2022/09/08 21:59:01;;;;;;;;;;;;;;;17.08;72.66;100642.09;10294683;28;20047;-70
2022/09/08 22:04:14;;;;;;;10.52;4.88;;;;;;;16.83;74.52;100627.56;10295154;28;19917;-70
2022/09/08 22:09:20;;;;;;;24.90;6.03;;;;;;;16.63;73.82;100622.94;10294255;28;20038;-70
2022/09/08 22:14:34;;;;;;;19.95;5.20;;;;;;;16.50;76.64;100625.56;10295339;28;20043;-70
2022/09/08 22:19:42;;;;;;;18.45;5.13;;;;;;;16.23;76.74;100581.72;10293849;28;20042;-70
2022/09/08 22:24:59;;;;;;;17.50;5.07;;;;;;;16.26;77.36;100605.44;10294405;28;20042;-70
2022/09/08 22:30:30;;;;;;;9.32;4.82;;;;;;;16.18;78.37;100609.16;10295394;28;20415;-70
2022/09/08 22:35:40;;;;;;;8.82;4.88;;;;;;;15.69;79.38;100540.44;10293351;28;20125;-70
2022/09/08 22:41:06;;;;;;;17.98;5.57;;;;;;;16.13;79.55;100606.22;10293760;28;20181;-70
2022/09/08 22:46:22;;;;;;;20.73;10.27;;;;;;;15.99;79.03;100615.19;10293510;28;20034;-70
2022/09/08 22:51:36;;;;;;;11.70;8.27;;;;;;;15.79;78.41;100601.66;10292354;28;20491;-70
2022/09/08 22:56:55;;;;;;;26.08;12.50;;;;;;;15.60;78.49;100605.84;10293461;28;20130;-70
2022/09/08 23:02:17;;;;;;;29.83;13.13;;;;;;;15.36;79.49;100599.06;10293821;28;20053;-70
2022/09/08 23:07:18;;;;;;;18.92;10.60;;;;;;;15.05;77.97;100552.06;10294214;28;20061;-70
2022/09/08 23:12:52;;;;;;;17.55;8.77;;;;;;;15.32;82.15;100618.38;10293178;28;20049;-70
2022/09/08 23:18:01;;;;;;;13.52;8.20;;;;;;;15.15;81.28;100607.09;10293565;28;20105;-70
2022/09/08 23:23:29;;;;;;;16.27;8.38;;;;;;;15.10;80.12;100607.66;10291788;28;20134;-70
2022/09/08 23:28:43;;;;;;;32.97;18.85;;;;;;;14.55;80.80;100553.81;10292129;28;20051;-70
2022/09/08 23:33:47;;;;;;;21.95;14.45;;;;;;;14.87;80.41;100605.19;10291439;28;20082;-70
2022/09/08 23:39:24;;;;;;;26.65;15.30;;;;;;;14.80;80.90;100609.63;10292793;28;20117;-70
2022/09/08 23:44:26;;;;;;;31.23;15.75;;;;;;;14.62;78.84;100612.72;10291500;28;20094;-70
2022/09/08 23:49:30;;;;;;;21.23;11.73;;;;;;;14.48;80.58;100616.19;10291925;28;20035;-71
2022/09/08 23:54:33;;;;;;;26.63;11.88;;;;;;;14.45;80.36;100612.09;10291670;28;20046;-70
2022/09/08 23:59:34;;;;;;;31.85;11.77;;;;;;;14.42;80.01;100614.28;10291644;28;20042;-70
